Observations for NEW YORK JF KENNEDY, NY (JFK)

KJFK 200551Z 19013G25KT 6SM -RA BR SCT004 BKN075 OVC110 14/14 A2974 RMK AO2 PK WND 18033/0530 SLP071 P0003 60005 T01390139 10150 20128 58010
KJFK 200524Z 18024G31KT 1SM R04R/P6000FT -RA BR OVC002 14/14 A2976 RMK AO2 PK WND 18031/0517 SFC VIS 2 P0000 T01440144
KJFK 200451Z 17018G23KT 1/2SM R04R/P6000FT -RA BR OVC002 14/14 A2975 RMK AO2 SFC VIS 1 1/2 RAE32B49 SLP074 P0001 T01390139 402110122
KJFK 200351Z 20015KT 1/2SM R04R/6000VP6000FT -RA BR OVC002 13/13 A2977 RMK AO2 SFC VIS 1 RAB46 SLP079 P0000 T01330133   
KJFK 200251Z 18015KT 1/2SM R04R/P6000FT BR OVC003 13/13 A2977 RMK AO2 SFC VIS 3 SLP081 60001 T01330133 58000
KJFK 200151Z 17013KT 1/2SM R04R/P6000FT BR OVC003 13/13 A2977 RMK AO2 SFC VIS 5 RAB07E48 SLP082 P0001 T01330133 
KJFK 200105Z 17014KT 7SM BKN006 BKN023 OVC042 14/14 A2979 RMK AO2 T01390139
KJFK 200121Z 17012KT 5SM -RA BR OVC004 13/13 A2979 RMK AO2 RAB07 P0000 T01330133
KJFK 200051Z 17017KT 7SM SCT006 BKN022 OVC038 14/14 A2978 RMK AO2 PK WND 18029/0002 SLP086 T01440144
KJFK 200020Z 17018KT 7SM FEW005 BKN027 BKN090 OVC200 14/14 A2979 RMK AO2 PK WND18029/0002 T01440144
KJFK 192351Z 17021KT 6SM BR FEW005 FEW024 BKN080 OVC200 15/15 A2977 RMK AO2 PK WND 18030/2256 SLP082 T01500150 10211 20150 58000
KJFK 192251Z 17023G32KT 6SM BR FEW007 SCT027 BKN080 OVC250 16/16 A2977 RMK AO2 PK WND 18032/2245 SLP081 SCT V BKN T01560156 
KJFK 192151Z 18020G26KT 9SM FEW013 FEW030 SCT085 BKN250 16/14 A2978 RMK AO2 PK WND 17030/2119 SLP085 T01560144  
KJFK 192051Z 18023G31KT 10SM FEW035 SCT095 SCT140 BKN250 17/14 A2977 RMK AO2 PK WND 18033/2013 SLP082 T01720144 56012   
KJFK 191951Z 18025G34KT 10SM FEW035 FEW075 SCT140 BKN250 19/16 A2978 RMK AO2 PK WND 18035/1901 SLP084 T01940161 
KJFK 191851Z 18027G34KT 10SM FEW038 SCT075 BKN250 21/16 A2979 RMK AO2 PK WND 19034/1846 SLP089 T02060161
KJFK 191751Z 19023G29KT 10SM FEW035 BKN070 BKN250 19/16 A2981 RMK AO2 PK WND 19032/1657 SLP094 T01890156 10211 20133 56015  
KJFK 191651Z 18022G30KT 10SM FEW032 SCT048 BKN070 BKN250 17/14 A2982 RMK AO2 PK WND 19030/1647 SLP098 T01720139 
KJFK 191551Z 18016KT 10SM SCT030 SCT065 BKN250 18/14 A2984 RMK AO2 SLP103 T01830144 
KJFK 191451Z 18016KT 9SM SCT029 BKN036 BKN140 OVC250 16/13 A2985 RMK AO2 SLP109 SCT V BKN T01560133 50007   
KJFK 191351Z 18016KT 9SM SCT026 BKN034 BKN160 BKN250 14/13 A2986 RMK AO2 SLP110 T01440128   
KJFK 191251Z 19020G25KT 9SM FEW009 SCT028 BKN130 BKN240 14/13 A2984 RMK AO2 PK WND 18028/1207 SLP104 T01440133  
KJFK 191151Z 18021KT 7SM FEW007 BKN031 BKN130 BKN240 13/13 A2983 RMK AO2 PK WND 18026/1149 SLP102 BKN031 V SCT T01330128 10133 20122 56005  
KJFK 191051Z 17015KT 7SM FEW007 FEW042 SCT130 BKN220 BKN300 12/12 A2983 RMK AO2 SLP102 T01220122
KJFK 190951Z 18017KT 8SM FEW130 BKN240 12/12 A2984 RMK AO2 SLP103 T01220122 
KJFK 190851Z 18017KT 9SM FEW130 BKN260 12/12 A2985 RMK AO2 SLP107 T01220122 55005   
KJFK 190751Z 19016KT 9SM BKN260 13/13 A2984 RMK AO2 SLP106 T01280128
KJFK 190651Z 19017G24KT 10SM BKN260 13/12 A2985 RMK AO2 SLP107 T01280122
KJFK 190551Z 18018KT 10SM BKN260 13/12 A2986 RMK AO2 PK WND 18028/0504 SLP112 T01280122 10128 20117 57016